Black Butte Atmospheric Data: 04/18/2019 Summary  Detailed Graphs  Station List

  Temperature     Wind Precipitation Visibility
Timestamp Air Wet
Bulb
Dew-
point
24-hr
Max
24-hr
Min
Relative
Humidity
Atmospheric
Pressure
Avg
Speed
Avg
Dir
Spot
Speed
Spot
Dir
Max
Speed
Max
Dir
  Rate Situation Start End 1 hr 3 hr 6 hr 12 hr 24 hr   Situation
Date Time °F °F °F °F °F % in Hg mph ° mph ° mph ° Y/N in/hr text Date Time Date Time in in in in in mi text
04/18/2019 12:07 AM 53.24 46.04 38.66 67.46 34.70 57.0 Not Reported 5.59 NW 5.59 NW 12.08 NW No 0.000 No Precipitation 04/15/2019 09:40 PM 04/15/2019 09:45 PM 0.000 0.000 0.000 0.000 0.000 Not Reported Not Reported
04/18/2019 12:22 AM 52.52 45.68 38.48 67.46 34.70 58.0 Not Reported 3.80 NW 4.03 N 6.26 N No 0.000 No Precipitation 04/15/2019 09:40 PM 04/15/2019 09:45 PM 0.000 0.000 0.000 0.000 0.000 Not Reported Not Reported
04/18/2019 12:37 AM 53.06 46.04 38.66 67.46 34.70 58.0 Not Reported 6.26 W 6.49 NW 9.62 NW No 0.000 No Precipitation 04/15/2019 09:40 PM 04/15/2019 09:45 PM 0.000 0.000 0.000 0.000 0.000 Not Reported Not Reported
04/18/2019 12:52 AM 49.10 44.24 39.02 67.46 34.70 67.0 Not Reported 2.68 W 3.36 W 6.04 NW No 0.000 No Precipitation 04/15/2019 09:40 PM 04/15/2019 09:45 PM 0.000 0.000 0.000 0.000 0.000 Not Reported Not Reported
04/18/2019 01:07 AM 51.08 44.96 38.48 67.46 34.70 62.0 Not Reported 5.59 W 3.13 W 7.38 W No 0.000 No Precipitation 04/15/2019 09:40 PM 04/15/2019 09:45 PM 0.000 0.000 0.000 0.000 0.000 Not Reported Not Reported
04/18/2019 01:22 AM 47.66 43.52 39.02 67.46 34.70 71.0 Not Reported 2.46 W 3.13 W 6.04 NW No 0.000 No Precipitation 04/15/2019 09:40 PM 04/15/2019 09:45 PM 0.000 0.000 0.000 0.000 0.000 Not Reported Not Reported
04/18/2019 01:37 AM 48.38 43.70 38.48 67.46 34.70 68.0 Not Reported 0.00 NE 0.67 NE 3.80 NW No 0.000 No Precipitation 04/15/2019 09:40 PM 04/15/2019 09:45 PM 0.000 0.000 0.000 0.000 0.000 Not Reported Not Reported
04/18/2019 01:52 AM 46.22 42.44 38.12 67.46 34.70 73.0 Not Reported 3.13 NW 2.68 NW 3.36 NW No 0.000 No Precipitation 04/15/2019 09:40 PM 04/15/2019 09:45 PM 0.000 0.000 0.000 0.000 0.000 Not Reported Not Reported
04/18/2019 02:07 AM 46.58 42.62 38.30 67.46 34.70 72.0 Not Reported 2.01 NW 2.68 NW 3.36 NW No 0.000 No Precipitation 04/15/2019 09:40 PM 04/15/2019 09:45 PM 0.000 0.000 0.000 0.000 0.000 Not Reported Not Reported
04/18/2019 02:22 AM 45.68 42.26 38.48 67.46 34.70 75.0 Not Reported 1.34 N 1.79 NW 2.91 N No 0.000 No Precipitation 04/15/2019 09:40 PM 04/15/2019 09:45 PM 0.000 0.000 0.000 0.000 0.000 Not Reported Not Reported
04/18/2019 02:37 AM 45.50 42.08 38.30 67.46 34.70 75.0 Not Reported 2.46 NW 0.22 NW 2.91 NW No 0.000 No Precipitation 04/15/2019 09:40 PM 04/15/2019 09:45 PM 0.000 0.000 0.000 0.000 0.000 Not Reported Not Reported
04/18/2019 02:52 AM 44.78 41.72 38.48 67.46 34.70 78.0 Not Reported 2.01 NW 3.80 NW 2.68 NW No 0.000 No Precipitation 04/15/2019 09:40 PM 04/15/2019 09:45 PM 0.000 0.000 0.000 0.000 0.000 Not Reported Not Reported
04/18/2019 03:07 AM 43.70 41.00 37.94 67.46 34.70 79.0 Not Reported 2.01 SW 2.01 NW 4.47 NW No 0.000 No Precipitation 04/15/2019 09:40 PM 04/15/2019 09:45 PM 0.000 0.000 0.000 0.000 0.000 Not Reported Not Reported
04/18/2019 03:22 AM 44.60 41.36 37.76 67.46 34.70 76.0 Not Reported 0.22 NW 0.00 NW 3.36 NW No 0.000 No Precipitation 04/15/2019 09:40 PM 04/15/2019 09:45 PM 0.000 0.000 0.000 0.000 0.000 Not Reported Not Reported
04/18/2019 03:37 AM 43.34 40.82 37.76 67.46 34.70 80.0 Not Reported 0.45 N 0.89 NW 2.24 W No 0.000 No Precipitation 04/15/2019 09:40 PM 04/15/2019 09:45 PM 0.000 0.000 0.000 0.000 0.000 Not Reported Not Reported
04/18/2019 03:52 AM 43.52 41.00 38.30 67.46 34.70 81.0 Not Reported 0.67 N 0.89 N 0.89 W No 0.000 No Precipitation 04/15/2019 09:40 PM 04/15/2019 09:45 PM 0.000 0.000 0.000 0.000 0.000 Not Reported Not Reported
04/18/2019 04:07 AM 43.88 41.00 37.76 67.46 34.70 79.0 Not Reported 0.00 N 0.00 NW 2.24 NW No 0.000 No Precipitation 04/15/2019 09:40 PM 04/15/2019 09:45 PM 0.000 0.000 0.000 0.000 0.000 Not Reported Not Reported
04/18/2019 04:22 AM 43.34 40.82 37.94 67.46 34.70 81.0 Not Reported 0.00 N 0.00 NW 2.91 N No 0.000 No Precipitation 04/15/2019 09:40 PM 04/15/2019 09:45 PM 0.000 0.000 0.000 0.000 0.000 Not Reported Not Reported
04/18/2019 04:37 AM 42.98 40.64 38.12 67.46 34.70 82.0 Not Reported 0.00 N 0.00 N 0.45 NW No 0.000 No Precipitation 04/15/2019 09:40 PM 04/15/2019 09:45 PM 0.000 0.000 0.000 0.000 0.000 Not Reported Not Reported
04/18/2019 04:52 AM 42.62 40.64 38.12 67.46 34.70 84.0 Not Reported 0.67 N 0.67 N 0.45 N No 0.000 No Precipitation 04/15/2019 09:40 PM 04/15/2019 09:45 PM 0.000 0.000 0.000 0.000 0.000 Not Reported Not Reported
04/18/2019 05:07 AM 42.44 40.46 38.12 67.46 34.70 84.0 Not Reported 0.45 N 0.00 NE 1.57 NW No 0.000 No Precipitation 04/15/2019 09:40 PM 04/15/2019 09:45 PM 0.000 0.000 0.000 0.000 0.000 Not Reported Not Reported
04/18/2019 05:22 AM 42.80 40.64 38.30 67.46 36.50 84.0 Not Reported 0.22 NW 0.22 NW 0.22 NW No 0.000 No Precipitation 04/15/2019 09:40 PM 04/15/2019 09:45 PM 0.000 0.000 0.000 0.000 0.000 Not Reported Not Reported
04/18/2019 05:37 AM 42.26 40.28 37.94 67.46 37.94 84.0 Not Reported 0.45 NW 0.67 NW 1.12 NW No 0.000 No Precipitation 04/15/2019 09:40 PM 04/15/2019 09:45 PM 0.000 0.000 0.000 0.000 0.000 Not Reported Not Reported
04/18/2019 05:52 AM 41.72 39.92 37.94 67.46 37.94 85.0 Not Reported 1.34 NW 1.57 NW 2.01 N No 0.000 No Precipitation 04/15/2019 09:40 PM 04/15/2019 09:45 PM 0.000 0.000 0.000 0.000 0.000 Not Reported Not Reported
04/18/2019 06:07 AM 41.72 39.74 37.40 67.46 37.94 84.0 Not Reported 1.12 NW 0.89 NW 1.79 NW No 0.000 No Precipitation 04/15/2019 09:40 PM 04/15/2019 09:45 PM 0.000 0.000 0.000 0.000 0.000 Not Reported Not Reported
04/18/2019 06:22 AM 41.36 39.38 37.04 67.46 37.94 84.0 Not Reported 1.79 W 2.01 NW 2.46 NW No 0.000 No Precipitation 04/15/2019 09:40 PM 04/15/2019 09:45 PM 0.000 0.000 0.000 0.000 0.000 Not Reported Not Reported
04/18/2019 06:37 AM 42.44 40.28 37.76 67.46 37.94 83.0 Not Reported 1.79 NW 1.12 W 2.91 NW No 0.000 No Precipitation 04/15/2019 09:40 PM 04/15/2019 09:45 PM 0.000 0.000 0.000 0.000 0.000 Not Reported Not Reported
04/18/2019 06:52 AM 42.44 40.10 37.22 67.46 37.94 81.0 Not Reported 1.57 W 2.46 NW 2.24 W No 0.000 No Precipitation 04/15/2019 09:40 PM 04/15/2019 09:45 PM 0.000 0.000 0.000 0.000 0.000 Not Reported Not Reported
04/18/2019 07:07 AM 41.18 39.38 36.86 67.46 37.94 84.0 Not Reported 2.24 NW 2.46 NW 2.46 NW No 0.000 No Precipitation 04/15/2019 09:40 PM 04/15/2019 09:45 PM 0.000 0.000 0.000 0.000 0.000 Not Reported Not Reported
04/18/2019 07:22 AM 41.54 39.38 37.04 67.46 37.94 83.0 Not Reported 0.22 W 0.89 W 2.24 NW No 0.000 No Precipitation 04/15/2019 09:40 PM 04/15/2019 09:45 PM 0.000 0.000 0.000 0.000 0.000 Not Reported Not Reported
04/18/2019 07:37 AM 41.00 39.02 36.68 67.46 37.94 84.0 Not Reported 2.01 W 1.79 W 2.68 W No 0.000 No Precipitation 04/15/2019 09:40 PM 04/15/2019 09:45 PM 0.000 0.000 0.000 0.000 0.000 Not Reported Not Reported
04/18/2019 07:52 AM 41.00 39.20 36.86 67.46 38.30 84.0 Not Reported 1.34 NW 1.12 NW 3.58 NW No 0.000 No Precipitation 04/15/2019 09:40 PM 04/15/2019 09:45 PM 0.000 0.000 0.000 0.000 0.000 Not Reported Not Reported
04/18/2019 08:07 AM 41.72 39.38 36.68 67.46 38.48 81.0 Not Reported 1.79 NW 1.79 NW 3.13 W No 0.000 No Precipitation 04/15/2019 09:40 PM 04/15/2019 09:45 PM 0.000 0.000 0.000 0.000 0.000 Not Reported Not Reported
04/18/2019 08:22 AM 44.78 41.54 37.76 67.46 40.46 76.0 Not Reported 2.68 W 1.79 SW 3.58 W No 0.000 No Precipitation 04/15/2019 09:40 PM 04/15/2019 09:45 PM 0.000 0.000 0.000 0.000 0.000 Not Reported Not Reported
04/18/2019 08:37 AM 46.40 42.62 38.30 67.46 40.46 72.0 Not Reported 3.13 NW 2.91 NW 3.80 NW No 0.000 No Precipitation 04/15/2019 09:40 PM 04/15/2019 09:45 PM 0.000 0.000 0.000 0.000 0.000 Not Reported Not Reported
04/18/2019 08:52 AM 47.84 43.52 38.48 67.46 40.46 69.0 Not Reported 3.36 NW 3.36 NW 4.92 NW No 0.000 No Precipitation 04/15/2019 09:40 PM 04/15/2019 09:45 PM 0.000 0.000 0.000 0.000 0.000 Not Reported Not Reported
04/18/2019 09:07 AM 50.00 44.60 39.38 67.46 40.46 66.0 Not Reported 4.92 NW 2.24 NW 5.14 NW No 0.000 No Precipitation 04/15/2019 09:40 PM 04/15/2019 09:45 PM 0.000 0.000 0.000 0.000 0.000 Not Reported Not Reported
04/18/2019 09:22 AM 51.98 45.86 39.38 67.46 40.46 62.0 Not Reported 4.70 NW 5.82 NW 6.04 NW No 0.000 No Precipitation 04/15/2019 09:40 PM 04/15/2019 09:45 PM 0.000 0.000 0.000 0.000 0.000 Not Reported Not Reported
04/18/2019 09:37 AM 53.78 47.12 40.28 67.46 40.46 60.0 Not Reported 2.68 NW 4.70 W 5.82 NW No 0.000 No Precipitation 04/15/2019 09:40 PM 04/15/2019 09:45 PM 0.000 0.000 0.000 0.000 0.000 Not Reported Not Reported
04/18/2019 09:52 AM 55.58 48.02 40.64 67.46 40.46 57.0 Not Reported 3.36 NW 1.57 NW 5.82 NW No 0.000 No Precipitation 04/15/2019 09:40 PM 04/15/2019 09:45 PM 0.000 0.000 0.000 0.000 0.000 Not Reported Not Reported
04/18/2019 10:07 AM 57.20 48.92 40.82 67.46 40.46 54.0 Not Reported 3.58 NW 3.36 NW 6.49 W No 0.000 No Precipitation 04/15/2019 09:40 PM 04/15/2019 09:45 PM 0.000 0.000 0.000 0.000 0.000 Not Reported Not Reported
04/18/2019 10:22 AM 57.92 48.74 39.56 67.46 40.46 50.0 Not Reported 6.49 NW 6.93 NW 7.38 W No 0.000 No Precipitation 04/15/2019 09:40 PM 04/15/2019 09:45 PM 0.000 0.000 0.000 0.000 0.000 Not Reported Not Reported
04/18/2019 10:37 AM 58.82 49.46 40.28 67.46 40.46 50.0 Not Reported 4.92 W 4.03 NW 8.05 W No 0.000 No Precipitation 04/15/2019 09:40 PM 04/15/2019 09:45 PM 0.000 0.000 0.000 0.000 0.000 Not Reported Not Reported
04/18/2019 10:52 AM 59.72 50.00 40.46 67.46 40.46 48.0 Not Reported 5.37 NW 6.04 NW 7.61 W No 0.000 No Precipitation 04/15/2019 09:40 PM 04/15/2019 09:45 PM 0.000 0.000 0.000 0.000 0.000 Not Reported Not Reported
04/18/2019 11:07 AM 60.44 50.36 41.00 67.46 40.46 48.0 Not Reported 6.04 W 5.59 W 10.29 NW No 0.000 No Precipitation 04/15/2019 09:40 PM 04/15/2019 09:45 PM 0.000 0.000 0.000 0.000 0.000 Not Reported Not Reported
04/18/2019 11:22 AM 62.24 51.26 41.18 67.46 40.46 45.0 Not Reported 5.14 W 4.03 W 7.16 W No 0.000 No Precipitation 04/15/2019 09:40 PM 04/15/2019 09:45 PM 0.000 0.000 0.000 0.000 0.000 Not Reported Not Reported
04/18/2019 11:37 AM 62.96 51.44 40.46 67.46 40.46 43.0 Not Reported 4.03 W 4.47 W 6.71 W No 0.000 No Precipitation 04/15/2019 09:40 PM 04/15/2019 09:45 PM 0.000 0.000 0.000 0.000 0.000 Not Reported Not Reported
04/18/2019 11:52 AM 64.94 52.88 42.08 67.46 40.46 43.0 Not Reported 2.68 W 1.79 W 6.26 W No 0.000 No Precipitation 04/15/2019 09:40 PM 04/15/2019 09:45 PM 0.000 0.000 0.000 0.000 0.000 Not Reported Not Reported
04/18/2019 12:07 PM 65.30 53.06 42.26 67.46 40.46 43.0 Not Reported 3.58 W 2.68 NW 5.59 NW No 0.000 No Precipitation 04/15/2019 09:40 PM 04/15/2019 09:45 PM 0.000 0.000 0.000 0.000 0.000 Not Reported Not Reported
04/18/2019 12:22 PM 67.64 54.32 42.98 67.64 40.46 40.0 Not Reported 4.92 W 5.59 W 6.71 N No 0.000 No Precipitation 04/15/2019 09:40 PM 04/15/2019 09:45 PM 0.000 0.000 0.000 0.000 0.000 Not Reported Not Reported
04/18/2019 12:37 PM 66.92 53.42 41.18 68.54 40.46 39.0 Not Reported 5.82 W 2.91 W 8.50 NW No 0.000 No Precipitation 04/15/2019 09:40 PM 04/15/2019 09:45 PM 0.000 0.000 0.000 0.000 0.000 Not Reported Not Reported
04/18/2019 12:52 PM 68.54 54.14 41.36 70.16 40.46 37.0 Not Reported 3.36 W 2.91 NW 4.92 N No 0.000 No Precipitation 04/15/2019 09:40 PM 04/15/2019 09:45 PM 0.000 0.000 0.000 0.000 0.000 Not Reported Not Reported
04/18/2019 01:07 PM 72.14 55.76 41.90 72.14 40.46 33.0 Not Reported 0.67 N 1.57 NW 5.82 NW No 0.000 No Precipitation 04/15/2019 09:40 PM 04/15/2019 09:45 PM 0.000 0.000 0.000 0.000 0.000 Not Reported Not Reported
04/18/2019 01:22 PM 73.58 56.48 42.26 73.76 40.46 32.0 Not Reported 4.25 NW 4.92 NW 4.25 SW No 0.000 No Precipitation 04/15/2019 09:40 PM 04/15/2019 09:45 PM 0.000 0.000 0.000 0.000 0.000 Not Reported Not Reported
04/18/2019 01:37 PM 72.14 54.68 39.02 74.12 40.46 30.0 Not Reported 2.24 SW 2.24 N 6.49 E No 0.000 No Precipitation 04/15/2019 09:40 PM 04/15/2019 09:45 PM 0.000 0.000 0.000 0.000 0.000 Not Reported Not Reported
04/18/2019 01:52 PM 74.12 55.58 39.02 74.66 40.46 28.0 Not Reported 2.24 NE 1.34 NE 2.91 NE No 0.000 No Precipitation 04/15/2019 09:40 PM 04/15/2019 09:45 PM 0.000 0.000 0.000 0.000 0.000 Not Reported Not Reported
04/18/2019 02:07 PM 75.02 56.30 40.10 75.02 40.46 28.0 Not Reported 1.34 N 4.47 NW 5.82 NE No 0.000 No Precipitation 04/15/2019 09:40 PM 04/15/2019 09:45 PM 0.000 0.000 0.000 0.000 0.000 Not Reported Not Reported
04/18/2019 02:22 PM 74.66 55.94 39.56 75.38 40.46 28.0 Not Reported 1.57 SW 0.22 S 4.92 N No 0.000 No Precipitation 04/15/2019 09:40 PM 04/15/2019 09:45 PM 0.000 0.000 0.000 0.000 0.000 Not Reported Not Reported
04/18/2019 02:37 PM 76.28 56.84 40.10 77.00 40.46 27.0 Not Reported 2.01 SW 2.46 S 5.14 NW No 0.000 No Precipitation 04/15/2019 09:40 PM 04/15/2019 09:45 PM 0.000 0.000 0.000 0.000 0.000 Not Reported Not Reported
04/18/2019 02:52 PM 75.92 56.30 39.38 77.18 40.46 26.0 Not Reported 0.89 N 0.67 N 5.37 SW No 0.000 No Precipitation 04/15/2019 09:40 PM 04/15/2019 09:45 PM 0.000 0.000 0.000 0.000 0.000 Not Reported Not Reported
04/18/2019 03:07 PM 77.36 56.30 37.04 78.26 40.46 23.0 Not Reported 3.13 E 5.14 SE 8.28 E No 0.000 No Precipitation 04/15/2019 09:40 PM 04/15/2019 09:45 PM 0.000 0.000 0.000 0.000 0.000 Not Reported Not Reported
04/18/2019 03:22 PM 77.54 56.12 36.50 78.26 40.46 22.0 Not Reported 2.91 SW 1.79 W 5.14 E No 0.000 No Precipitation 04/15/2019 09:40 PM 04/15/2019 09:45 PM 0.000 0.000 0.000 0.000 0.000 Not Reported Not Reported
04/18/2019 03:37 PM 78.08 56.30 36.50 79.34 40.46 22.0 Not Reported 2.91 S 3.13 E 3.80 SE No 0.000 No Precipitation 04/15/2019 09:40 PM 04/15/2019 09:45 PM 0.000 0.000 0.000 0.000 0.000 Not Reported Not Reported
04/18/2019 03:52 PM 78.26 56.30 36.32 79.34 40.46 22.0 Not Reported 4.47 NW 3.80 NW 3.58 NE No 0.000 No Precipitation 04/15/2019 09:40 PM 04/15/2019 09:45 PM 0.000 0.000 0.000 0.000 0.000 Not Reported Not Reported
04/18/2019 04:07 PM 76.28 55.40 35.96 80.42 40.46 23.0 Not Reported 4.03 NE 2.46 N 5.82 N No 0.000 No Precipitation 04/15/2019 09:40 PM 04/15/2019 09:45 PM 0.000 0.000 0.000 0.000 0.000 Not Reported Not Reported
04/18/2019 04:22 PM 81.14 58.28 38.84 81.14 40.46 22.0 Not Reported 1.57 SW 2.24 SW 4.25 NW No 0.000 No Precipitation 04/15/2019 09:40 PM 04/15/2019 09:45 PM 0.000 0.000 0.000 0.000 0.000 Not Reported Not Reported
04/18/2019 04:37 PM 79.88 56.84 35.78 81.68 40.46 20.0 Not Reported 1.12 N 0.00 NE 5.14 E No 0.000 No Precipitation 04/15/2019 09:40 PM 04/15/2019 09:45 PM 0.000 0.000 0.000 0.000 0.000 Not Reported Not Reported
04/18/2019 04:52 PM 80.60 57.20 35.96 83.48 40.46 20.0 Not Reported 1.79 SW 0.45 NW 2.46 N No 0.000 No Precipitation 04/15/2019 09:40 PM 04/15/2019 09:45 PM 0.000 0.000 0.000 0.000 0.000 Not Reported Not Reported
04/18/2019 05:07 PM 79.88 56.48 34.52 83.48 40.46 19.0 Not Reported 1.12 W 1.12 SE 4.47 S No 0.000 No Precipitation 04/15/2019 09:40 PM 04/15/2019 09:45 PM 0.000 0.000 0.000 0.000 0.000 Not Reported Not Reported
04/18/2019 05:22 PM 80.24 56.84 35.42 83.48 40.46 19.0 Not Reported 1.34 W 0.22 N 3.36 W No 0.000 No Precipitation 04/15/2019 09:40 PM 04/15/2019 09:45 PM 0.000 0.000 0.000 0.000 0.000 Not Reported Not Reported
04/18/2019 05:37 PM 79.88 56.12 33.62 83.48 40.46 18.0 Not Reported 1.79 SE 1.79 E 4.70 E No 0.000 No Precipitation 04/15/2019 09:40 PM 04/15/2019 09:45 PM 0.000 0.000 0.000 0.000 0.000 Not Reported Not Reported
04/18/2019 05:52 PM 78.80 55.76 33.44 83.48 40.46 19.0 Not Reported 2.24 SW 2.46 S 4.25 SW No 0.000 No Precipitation 04/15/2019 09:40 PM 04/15/2019 09:45 PM 0.000 0.000 0.000 0.000 0.000 Not Reported Not Reported
04/18/2019 06:07 PM 78.98 56.48 35.60 83.48 40.46 20.0 Not Reported 2.46 SE 2.24 SE 3.36 S No 0.000 No Precipitation 04/15/2019 09:40 PM 04/15/2019 09:45 PM 0.000 0.000 0.000 0.000 0.000 Not Reported Not Reported
04/18/2019 06:22 PM 78.80 56.30 35.06 83.48 40.46 20.0 Not Reported 0.89 E 0.45 E 2.46 E No 0.000 No Precipitation 04/15/2019 09:40 PM 04/15/2019 09:45 PM 0.000 0.000 0.000 0.000 0.000 Not Reported Not Reported
04/18/2019 06:37 PM 79.88 56.84 35.42 83.48 40.46 20.0 Not Reported 0.67 S 2.24 SE 4.25 W No 0.000 No Precipitation 04/15/2019 09:40 PM 04/15/2019 09:45 PM 0.000 0.000 0.000 0.000 0.000 Not Reported Not Reported
04/18/2019 06:52 PM 77.90 55.94 35.42 83.48 40.46 21.0 Not Reported 2.24 E 2.91 SE 5.59 SE No 0.000 No Precipitation 04/15/2019 09:40 PM 04/15/2019 09:45 PM 0.000 0.000 0.000 0.000 0.000 Not Reported Not Reported
04/18/2019 07:07 PM 76.82 54.86 33.44 83.48 40.46 20.0 Not Reported 1.79 E 2.01 E 3.58 SW No 0.000 No Precipitation 04/15/2019 09:40 PM 04/15/2019 09:45 PM 0.000 0.000 0.000 0.000 0.000 Not Reported Not Reported
04/18/2019 07:22 PM 76.64 55.58 36.14 83.48 40.46 23.0 Not Reported 1.12 SE 0.22 SE 3.36 E No 0.000 No Precipitation 04/15/2019 09:40 PM 04/15/2019 09:45 PM 0.000 0.000 0.000 0.000 0.000 Not Reported Not Reported
04/18/2019 07:37 PM 74.12 54.32 35.06 83.48 40.46 23.0 Not Reported 2.46 SE 1.12 E 2.68 SE No 0.000 No Precipitation 04/15/2019 09:40 PM 04/15/2019 09:45 PM 0.000 0.000 0.000 0.000 0.000 Not Reported Not Reported
04/18/2019 07:52 PM 71.96 53.60 35.78 83.48 40.46 26.0 Not Reported 1.12 SE 1.79 SE 2.91 E No 0.000 No Precipitation 04/15/2019 09:40 PM 04/15/2019 09:45 PM 0.000 0.000 0.000 0.000 0.000 Not Reported Not Reported
04/18/2019 08:07 PM 72.32 53.78 35.96 83.48 40.46 26.0 Not Reported 1.79 E 2.24 SE 2.01 SE No 0.000 No Precipitation 04/15/2019 09:40 PM 04/15/2019 09:45 PM 0.000 0.000 0.000 0.000 0.000 Not Reported Not Reported
04/18/2019 08:22 PM 70.16 53.78 38.66 83.48 40.46 31.0 Not Reported 0.45 E 0.89 NE 3.13 E No 0.000 No Precipitation 04/15/2019 09:40 PM 04/15/2019 09:45 PM 0.000 0.000 0.000 0.000 0.000 Not Reported Not Reported
04/18/2019 08:37 PM 67.28 53.42 40.82 83.48 40.46 38.0 Not Reported 0.22 E 0.45 N 0.89 E No 0.000 No Precipitation 04/15/2019 09:40 PM 04/15/2019 09:45 PM 0.000 0.000 0.000 0.000 0.000 Not Reported Not Reported
04/18/2019 08:52 PM 65.48 52.34 40.46 83.48 40.46 39.0 Not Reported 2.24 SE 2.24 E 2.46 SE No 0.000 No Precipitation 04/15/2019 09:40 PM 04/15/2019 09:45 PM 0.000 0.000 0.000 0.000 0.000 Not Reported Not Reported
04/18/2019 09:07 PM 62.96 51.44 40.82 83.48 40.46 44.0 Not Reported 0.89 SE 1.12 SE 2.68 E No 0.000 No Precipitation 04/15/2019 09:40 PM 04/15/2019 09:45 PM 0.000 0.000 0.000 0.000 0.000 Not Reported Not Reported
04/18/2019 09:22 PM 64.22 51.62 39.56 83.48 40.46 40.0 Not Reported 3.36 E 1.79 SE 5.14 E No 0.000 No Precipitation 04/15/2019 09:40 PM 04/15/2019 09:45 PM 0.000 0.000 0.000 0.000 0.000 Not Reported Not Reported
04/18/2019 09:37 PM 61.88 50.90 40.28 83.48 40.46 44.0 Not Reported 2.24 SE 0.89 S 5.59 SE No 0.000 No Precipitation 04/15/2019 09:40 PM 04/15/2019 09:45 PM 0.000 0.000 0.000 0.000 0.000 Not Reported Not Reported
04/18/2019 09:52 PM 60.26 50.18 40.46 83.48 40.46 47.0 Not Reported 1.12 SE 0.89 SE 3.36 SE No 0.000 No Precipitation 04/15/2019 09:40 PM 04/15/2019 09:45 PM 0.000 0.000 0.000 0.000 0.000 Not Reported Not Reported
04/18/2019 10:07 PM 59.18 49.64 40.28 83.48 40.46 49.0 Not Reported 1.12 S 0.89 SE 2.46 SE No 0.000 No Precipitation 04/15/2019 09:40 PM 04/15/2019 09:45 PM 0.000 0.000 0.000 0.000 0.000 Not Reported Not Reported
04/18/2019 10:22 PM 58.46 49.10 40.10 83.48 40.46 50.0 Not Reported 4.03 SE 3.58 E 4.70 SE No 0.000 No Precipitation 04/15/2019 09:40 PM 04/15/2019 09:45 PM 0.000 0.000 0.000 0.000 0.000 Not Reported Not Reported
04/18/2019 10:37 PM 59.00 48.92 39.02 83.48 40.46 47.0 Not Reported 4.92 E 5.37 E 4.47 SE No 0.000 No Precipitation 04/15/2019 09:40 PM 04/15/2019 09:45 PM 0.000 0.000 0.000 0.000 0.000 Not Reported Not Reported
04/18/2019 10:52 PM 61.52 49.64 37.94 83.48 40.46 41.0 Not Reported 4.92 SE 5.14 E 5.59 E No 0.000 No Precipitation 04/15/2019 09:40 PM 04/15/2019 09:45 PM 0.000 0.000 0.000 0.000 0.000 Not Reported Not Reported
04/18/2019 11:07 PM 58.82 49.10 39.38 83.48 40.46 48.0 Not Reported 2.24 SE 2.01 SE 5.59 SE No 0.000 No Precipitation 04/15/2019 09:40 PM 04/15/2019 09:45 PM 0.000 0.000 0.000 0.000 0.000 Not Reported Not Reported
04/18/2019 11:22 PM 57.20 48.38 39.38 83.48 40.46 51.0 Not Reported 2.01 SE 1.12 SE 4.70 E No 0.000 No Precipitation 04/15/2019 09:40 PM 04/15/2019 09:45 PM 0.000 0.000 0.000 0.000 0.000 Not Reported Not Reported
04/18/2019 11:37 PM 56.30 48.02 39.74 83.48 40.46 53.0 Not Reported 0.89 SE 4.25 E 4.47 SE No 0.000 No Precipitation 04/15/2019 09:40 PM 04/15/2019 09:45 PM 0.000 0.000 0.000 0.000 0.000 Not Reported Not Reported
04/18/2019 11:52 PM 55.22 47.12 38.66 83.48 40.46 53.0 Not Reported 4.03 SE 3.80 SE 4.25 SE No 0.000 No Precipitation 04/15/2019 09:40 PM 04/15/2019 09:45 PM 0.000 0.000 0.000 0.000 0.000 Not Reported Not Reported